Time;durP1;ratioP1;P1;durP2;ratioP2;P2;SDS_P1;SDS_P2;PMS_P1;PMS_P2;Temp;Humidity;BMP_temperature;BMP_pressure;BME280_temperature;BME280_humidity;BME280_pressure;Samples;Min_cycle;Max_cycle;Signal;HPM_P1;HPM_P2
2022/08/13 00:00:36;;;;;;;57.20;36.25;;;26.70;99.90;;;;;;5033799;28;20546;-66
2022/08/13 00:03:04;;;;;;;68.50;41.85;;;26.70;99.90;;;;;;5033815;28;20029;-67
2022/08/13 00:05:31;;;;;;;72.03;47.28;;;26.60;99.90;;;;;;5033797;28;20021;-66
2022/08/13 00:07:57;;;;;;;58.90;38.22;;;26.60;99.90;;;;;;5033730;28;20470;-66
2022/08/13 00:10:28;;;;;;;59.00;41.15;;;26.50;99.90;;;;;;5033695;28;20390;-66
2022/08/13 00:12:57;;;;;;;46.05;38.58;;;26.50;99.90;;;;;;5033546;28;20433;-66
2022/08/13 00:15:44;;;;;;;44.08;29.35;;;26.30;99.90;;;;;;5033684;28;20032;-67
2022/08/13 00:18:20;;;;;;;43.50;28.95;;;26.20;99.90;;;;;;5033418;28;20096;-67
2022/08/13 00:20:52;;;;;;;67.25;51.90;;;26.20;99.90;;;;;;5033924;28;20021;-67
2022/08/13 00:23:20;;;;;;;43.63;33.63;;;26.20;99.90;;;;;;5033494;28;20033;-67
2022/08/13 00:25:49;;;;;;;48.95;33.50;;;26.20;99.90;;;;;;5033368;28;20029;-67
2022/08/13 00:28:19;;;;;;;36.15;27.02;;;26.30;99.90;;;;;;5033264;28;20039;-67
2022/08/13 00:30:47;;;;;;;60.65;40.67;;;26.30;99.90;;;;;;5032620;28;20460;-66
2022/08/13 00:33:17;;;;;;;43.53;28.95;;;26.30;99.90;;;;;;5032093;28;20100;-67
2022/08/13 00:35:47;;;;;;;65.03;41.70;;;26.30;99.90;;;;;;5032675;28;20048;-66
2022/08/13 00:38:20;;;;;;;36.55;23.20;;;26.30;99.90;;;;;;5033041;28;20132;-66
2022/08/13 00:40:52;;;;;;;37.13;23.23;;;26.30;99.90;;;;;;5033243;28;20022;-66
2022/08/13 00:43:19;;;;;;;30.83;22.70;;;26.40;99.90;;;;;;5033292;28;20021;-67
2022/08/13 00:45:46;;;;;;;28.70;20.90;;;26.60;99.90;;;;;;5033158;28;20112;-66
2022/08/13 00:51:01;;;;;;;35.90;23.88;;;26.60;99.90;;;;;;5033068;28;20036;-66
2022/08/13 00:53:30;;;;;;;35.55;23.60;;;26.80;99.90;;;;;;5033162;28;20037;-66
2022/08/13 00:55:58;;;;;;;38.85;23.23;;;26.90;99.90;;;;;;5032935;28;20026;-65
2022/08/13 00:58:27;;;;;;;29.55;21.80;;;27.00;99.90;;;;;;5031212;28;20606;-65
2022/08/13 01:00:57;;;;;;;40.20;24.77;;;27.20;99.90;;;;;;5032159;28;20459;-66
2022/08/13 01:03:26;;;;;;;31.98;23.30;;;27.40;99.90;;;;;;5032225;28;20017;-65
2022/08/13 01:05:59;;;;;;;33.17;23.08;;;27.50;99.90;;;;;;5032573;28;20041;-66
2022/08/13 01:08:31;;;;;;;27.73;21.52;;;27.50;99.90;;;;;;5032495;28;20044;-66
2022/08/13 01:11:03;;;;;;;34.10;23.98;;;27.60;99.90;;;;;;5032568;28;20037;-66
2022/08/13 01:13:35;;;;;;;37.25;23.52;;;27.70;99.90;;;;;;5032946;28;20033;-65
2022/08/13 01:16:04;;;;;;;35.13;22.40;;;27.80;99.90;;;;;;5032676;28;20030;-66
2022/08/13 01:18:31;;;;;;;30.67;22.25;;;27.80;99.90;;;;;;5032942;28;20096;-66
2022/08/13 01:21:19;;;;;;;32.88;23.25;;;27.80;99.90;;;;;;5032946;28;20013;-66
2022/08/13 01:23:48;;;;;;;30.27;22.42;;;27.80;99.90;;;;;;5032998;28;20084;-66
2022/08/13 01:26:19;;;;;;;34.70;23.55;;;27.80;99.90;;;;;;5032896;28;20108;-65
2022/08/13 01:28:47;;;;;;;27.60;18.65;;;27.90;99.90;;;;;;5033757;28;20112;-66
2022/08/13 01:31:16;;;;;;;34.35;18.23;;;28.00;99.90;;;;;;5031785;28;20076;-66
2022/08/13 01:33:45;;;;;;;30.63;19.70;;;28.00;99.90;;;;;;5031864;28;20033;-66
2022/08/13 01:36:12;;;;;;;25.63;16.90;;;28.10;99.90;;;;;;5032407;28;20051;-66
2022/08/13 01:38:41;;;;;;;23.73;14.90;;;28.20;99.90;;;;;;5033242;28;20052;-66
2022/08/13 01:41:09;;;;;;;27.15;15.00;;;28.30;99.90;;;;;;5036342;28;20021;-66
2022/08/13 01:43:38;;;;;;;20.38;15.05;;;28.40;99.90;;;;;;5036232;28;20083;-66
2022/08/13 01:46:07;;;;;;;20.25;13.50;;;28.40;99.90;;;;;;5041420;22;20049;-63
2022/08/13 01:51:31;;;;;;;24.83;15.43;;;28.50;99.90;;;;;;5016760;28;20030;-65
2022/08/13 01:53:59;;;;;;;28.40;17.15;;;28.50;99.90;;;;;;5016341;28;20032;-66
2022/08/13 01:56:29;;;;;;;25.75;17.40;;;28.50;99.90;;;;;;5016404;28;20407;-66
2022/08/13 01:59:00;;;;;;;26.10;17.83;;;28.60;99.90;;;;;;5016365;28;20022;-66
2022/08/13 02:01:27;;;;;;;30.33;19.38;;;28.60;99.90;;;;;;5016190;28;20487;-66
2022/08/13 02:03:56;;;;;;;27.42;18.90;;;28.70;99.90;;;;;;5016155;28;20058;-65
2022/08/13 02:06:28;;;;;;;30.67;16.05;;;28.80;99.90;;;;;;5016127;28;20081;-65
2022/08/13 02:09:01;;;;;;;29.30;18.27;;;29.00;99.90;;;;;;5016013;28;20053;-65
2022/08/13 02:11:35;;;;;;;22.33;16.77;;;29.10;99.90;;;;;;5016068;28;20041;-65
2022/08/13 02:14:04;;;;;;;27.15;17.73;;;29.10;99.90;;;;;;5015871;28;20112;-66
2022/08/13 02:16:33;;;;;;;24.88;18.17;;;29.20;99.90;;;;;;5016059;28;20422;-65
2022/08/13 02:19:01;;;;;;;26.45;15.40;;;29.20;99.90;;;;;;5015970;28;20471;-66
2022/08/13 02:21:32;;;;;;;23.42;17.33;;;29.40;99.90;;;;;;5015843;28;20030;-66
2022/08/13 02:24:03;;;;;;;24.50;17.33;;;29.50;99.90;;;;;;5016187;28;20026;-65
2022/08/13 02:26:32;;;;;;;27.35;18.63;;;29.50;99.90;;;;;;5016027;28;20036;-66
2022/08/13 02:29:03;;;;;;;23.75;17.10;;;29.60;99.90;;;;;;5015704;28;20038;-65
2022/08/13 02:31:29;;;;;;;24.90;17.55;;;29.70;99.90;;;;;;5015689;28;20109;-65
2022/08/13 02:33:57;;;;;;;25.10;15.02;;;29.80;99.90;;;;;;5015612;28;20034;-67
2022/08/13 02:36:25;;;;;;;20.67;15.30;;;29.80;99.90;;;;;;5015686;28;20030;-65
2022/08/13 02:38:56;;;;;;;24.95;15.90;;;29.90;99.90;;;;;;5015732;28;20174;-65
2022/08/13 02:44:14;;;;;;;19.42;15.18;;;29.90;99.90;;;;;;5015443;28;20034;-65
2022/08/13 02:46:49;;;;;;;22.48;16.25;;;30.00;99.90;;;;;;5015400;28;20041;-65
2022/08/13 02:49:17;;;;;;;32.63;17.60;;;30.00;99.90;;;;;;5015294;28;20037;-65
2022/08/13 02:51:44;;;;;;;22.80;14.70;;;30.10;99.90;;;;;;5015337;28;20033;-65
2022/08/13 02:54:11;;;;;;;34.55;19.15;;;30.20;99.90;;;;;;5015154;28;20029;-65
2022/08/13 02:56:38;;;;;;;29.05;18.48;;;30.40;99.90;;;;;;5015144;28;20025;-65
2022/08/13 02:59:10;;;;;;;24.27;16.33;;;30.40;99.90;;;;;;5015148;28;20026;-68
2022/08/13 03:01:39;;;;;;;32.97;16.85;;;30.40;99.90;;;;;;5015137;28;20034;-67
2022/08/13 03:04:08;;;;;;;23.65;14.80;;;30.50;99.90;;;;;;5014971;28;20025;-68
2022/08/13 03:06:35;;;;;;;23.83;15.32;;;30.60;99.90;;;;;;5015157;28;20125;-67
2022/08/13 03:09:02;;;;;;;22.15;16.45;;;30.70;99.90;;;;;;5013323;28;20034;-68
2022/08/13 03:11:29;;;;;;;30.70;19.15;;;30.70;99.90;;;;;;5005406;28;20555;-66
2022/08/13 03:14:03;;;;;;;35.58;20.67;;;30.70;99.90;;;;;;4995316;28;20026;-66
2022/08/13 03:16:30;;;;;;;35.53;22.88;;;30.90;99.90;;;;;;4995259;28;20018;-67
2022/08/13 03:18:58;;;;;;;30.65;18.00;;;30.90;99.90;;;;;;4995241;28;20077;-67
2022/08/13 03:21:29;;;;;;;31.45;18.70;;;30.90;99.90;;;;;;4995059;28;20018;-67
2022/08/13 03:23:56;;;;;;;30.13;18.88;;;31.00;99.90;;;;;;4995427;28;20097;-68
2022/08/13 03:26:24;;;;;;;23.30;15.90;;;31.20;99.90;;;;;;4995195;28;20034;-68
2022/08/13 03:28:53;;;;;;;30.08;16.77;;;31.20;99.90;;;;;;4994945;28;20053;-68
2022/08/13 03:31:21;;;;;;;25.38;15.52;;;31.20;99.90;;;;;;4995090;28;20033;-69
2022/08/13 03:33:48;;;;;;;25.20;14.70;;;31.40;99.90;;;;;;4995100;28;20088;-68
2022/08/13 03:36:15;;;;;;;25.88;15.15;;;31.20;99.90;;;;;;5005595;28;20081;-69
2022/08/13 03:38:42;;;;;;;25.85;16.30;;;31.20;99.90;;;;;;4996626;28;20041;-68
2022/08/13 03:41:17;;;;;;;23.60;15.43;;;31.30;99.90;;;;;;5003547;28;20023;-64
2022/08/13 03:43:47;;;;;;;29.15;16.73;;;31.40;99.90;;;;;;4998113;28;20365;-65
2022/08/13 03:46:18;;;;;;;24.55;16.33;;;31.50;99.90;;;;;;5002546;28;20046;-65
2022/08/13 03:48:47;;;;;;;24.27;15.32;;;31.50;99.90;;;;;;5003987;28;20030;-65
2022/08/13 03:51:16;;;;;;;21.58;16.23;;;31.60;99.90;;;;;;5003390;28;20035;-65
2022/08/13 03:53:44;;;;;;;18.60;12.82;;;31.70;99.90;;;;;;5008188;28;20084;-65
2022/08/13 03:56:13;;;;;;;21.95;14.50;;;31.80;99.90;;;;;;5007259;28;20089;-64
2022/08/13 03:58:41;;;;;;;22.38;14.63;;;31.80;99.90;;;;;;5002046;28;20121;-63
2022/08/13 04:01:07;;;;;;;29.55;17.40;;;31.90;99.90;;;;;;5003118;28;20014;-63
2022/08/13 04:03:40;;;;;;;33.70;20.20;;;31.90;99.90;;;;;;5003662;28;20080;-63
2022/08/13 04:06:09;;;;;;;23.58;16.95;;;32.20;99.90;;;;;;5004615;28;20034;-66
2022/08/13 04:08:38;;;;;;;22.88;16.73;;;32.20;99.90;;;;;;5002928;28;20021;-65
2022/08/13 04:11:08;;;;;;;24.73;15.40;;;32.20;99.90;;;;;;5004040;28;20029;-66
2022/08/13 04:13:36;;;;;;;24.60;16.73;;;32.10;99.90;;;;;;5006246;28;20050;-66
2022/08/13 04:16:07;;;;;;;18.80;14.25;;;32.00;99.90;;;;;;5004539;28;20097;-66
2022/08/13 04:18:37;;;;;;;26.33;12.40;;;31.90;99.90;;;;;;5005976;28;20448;-68
2022/08/13 04:21:06;;;;;;;16.65;12.75;;;32.00;99.90;;;;;;5006675;28;20084;-68
2022/08/13 04:23:34;;;;;;;17.90;14.02;;;32.00;99.90;;;;;;4996300;28;20061;-69
2022/08/13 04:26:01;;;;;;;22.58;13.35;;;32.20;99.90;;;;;;4994146;28;20475;-67
2022/08/13 04:28:28;;;;;;;15.25;12.40;;;32.40;99.90;;;;;;4995052;28;20030;-67
2022/08/13 04:30:54;;;;;;;19.45;13.02;;;32.50;99.90;;;;;;5012585;28;20030;-68
2022/08/13 04:33:21;;;;;;;21.38;13.05;;;32.40;99.90;;;;;;5013468;28;20033;-69
2022/08/13 04:35:47;;;;;;;19.27;13.40;;;32.50;99.90;;;;;;5013495;28;20033;-68
2022/08/13 04:38:15;;;;;;;17.08;12.75;;;32.60;99.90;;;;;;5013496;28;20022;-68
2022/08/13 04:40:45;;;;;;;18.77;12.88;;;32.60;99.90;;;;;;5013471;28;20022;-69
2022/08/13 04:43:13;;;;;;;18.90;12.43;;;32.70;99.90;;;;;;5002436;28;20017;-71
2022/08/13 04:45:41;;;;;;;15.05;10.70;;;32.70;99.90;;;;;;4985548;28;20038;-70
2022/08/13 04:48:12;;;;;;;18.00;11.48;;;32.80;99.90;;;;;;4998107;28;20344;-67
2022/08/13 04:50:41;;;;;;;33.47;22.98;;;32.80;99.90;;;;;;4976165;28;20423;-70
2022/08/13 04:53:09;;;;;;;21.10;15.02;;;32.90;99.70;;;;;;4993226;28;20022;-68
2022/08/13 04:55:37;;;;;;;17.42;11.98;;;33.00;99.80;;;;;;4994076;28;20022;-68
2022/08/13 04:58:08;;;;;;;15.82;11.57;;;33.00;99.80;;;;;;4993521;28;20033;-68
2022/08/13 05:00:35;;;;;;;19.10;12.18;;;32.90;99.80;;;;;;5003672;28;20026;-69
2022/08/13 05:03:15;;;;;;;16.88;12.05;;;33.00;99.90;;;;;;5001764;28;20073;-71
2022/08/13 05:05:43;;;;;;;22.00;12.52;;;33.10;99.60;;;;;;5004321;28;20505;-68
2022/08/13 05:08:11;;;;;;;17.30;11.88;;;33.10;99.30;;;;;;5002223;28;20022;-69
2022/08/13 05:10:39;;;;;;;104.38;71.15;;;33.10;98.50;;;;;;5004266;28;20034;-67
2022/08/13 05:13:25;;;;;;;68.88;50.17;;;33.20;98.80;;;;;;5003858;28;20018;-64
2022/08/13 05:15:54;;;;;;;21.30;16.58;;;33.20;97.60;;;;;;5006327;28;20117;-64
2022/08/13 05:18:21;;;;;;;28.13;22.20;;;33.30;98.10;;;;;;5007841;28;20018;-66
2022/08/13 05:20:48;;;;;;;45.90;29.30;;;33.20;98.40;;;;;;5005933;28;20423;-66
2022/08/13 05:23:15;;;;;;;25.30;15.82;;;33.30;98.80;;;;;;5007145;28;20101;-65
2022/08/13 05:25:43;;;;;;;17.10;13.02;;;33.40;98.40;;;;;;5005419;28;20034;-64
2022/08/13 05:28:10;;;;;;;26.17;15.75;;;33.40;98.00;;;;;;5005543;28;20061;-65
2022/08/13 05:30:39;;;;;;;28.33;16.40;;;33.40;98.10;;;;;;5007021;28;20104;-66
2022/08/13 05:33:26;;;;;;;20.00;13.27;;;33.50;97.70;;;;;;5005892;28;20032;-64
2022/08/13 05:35:58;;;;;;;25.95;14.68;;;33.40;97.10;;;;;;5004508;28;20030;-64
2022/08/13 05:38:25;;;;;;;;;;;33.40;97.30;;;;;;5004940;28;20472;-63
2022/08/13 05:40:56;;;;;;;18.55;12.50;;;33.40;97.10;;;;;;5006623;28;19913;-64
2022/08/13 05:43:26;;;;;;;17.85;12.32;;;33.40;96.70;;;;;;5007368;28;20419;-64
2022/08/13 05:45:57;;;;;;;20.77;12.60;;;33.60;96.70;;;;;;5004642;28;20050;-64
2022/08/13 05:48:26;;;;;;;15.10;12.10;;;33.70;97.60;;;;;;5007511;28;20057;-64
2022/08/13 05:50:54;;;;;;;17.58;11.48;;;33.60;97.50;;;;;;5011713;28;20092;-65
2022/08/13 05:53:21;;;;;;;16.70;10.63;;;33.60;96.80;;;;;;5009486;28;20014;-64
2022/08/13 05:55:48;;;;;;;18.90;11.05;;;33.50;96.30;;;;;;5006504;28;20037;-64
2022/08/13 05:58:15;;;;;;;19.42;11.30;;;33.50;97.20;;;;;;5004824;28;20026;-64
2022/08/13 06:03:27;;;;;;;24.15;18.02;;;33.60;96.60;;;;;;5009035;28;20230;-63
2022/08/13 06:05:59;;;;;;;20.42;11.68;;;33.40;96.30;;;;;;5009564;28;20117;-64
2022/08/13 06:08:30;;;;;;;;;;;33.30;95.80;;;;;;5009133;28;20045;-64
2022/08/13 06:10:59;;;;;;;19.65;11.73;;;33.40;96.50;;;;;;5008521;28;19906;-63
2022/08/13 06:13:28;;;;;;;18.25;10.63;;;33.60;96.10;;;;;;5001365;28;20026;-64
2022/08/13 06:15:58;;;;;;;16.05;10.63;;;33.80;95.10;;;;;;4999139;28;20034;-64
2022/08/13 06:18:29;;;;;;;16.17;11.27;;;33.90;93.70;;;;;;5007061;28;20050;-65
2022/08/13 06:20:58;;;;;;;15.10;10.20;;;34.00;94.20;;;;;;5008296;28;20025;-64
2022/08/13 06:23:26;;;;;;;15.35;10.07;;;34.00;92.70;;;;;;5007189;28;20021;-64
2022/08/13 06:25:54;;;;;;;15.65;9.65;;;34.10;93.00;;;;;;5005146;28;20467;-64
2022/08/13 06:28:29;;;;;;;14.45;10.10;;;34.30;93.10;;;;;;5005858;28;20057;-65
2022/08/13 06:31:00;;;;;;;16.75;11.82;;;34.40;92.30;;;;;;5006431;28;20159;-65
2022/08/13 06:33:29;;;;;;;17.90;11.00;;;34.20;92.90;;;;;;5010081;28;20026;-64
2022/08/13 06:36:04;;;;;;;16.10;11.55;;;34.10;92.60;;;;;;5004017;28;20539;-64
2022/08/13 06:38:36;;;;;;;16.20;12.95;;;33.90;92.90;;;;;;5005629;28;20026;-63
2022/08/13 06:41:05;;;;;;;19.38;12.65;;;33.90;93.40;;;;;;5003379;28;20427;-64
2022/08/13 06:43:37;;;;;;;20.42;15.18;;;34.00;93.40;;;;;;5004142;28;20025;-65
2022/08/13 06:46:05;;;;;;;17.83;13.27;;;33.90;93.20;;;;;;5005918;28;20050;-65
2022/08/13 06:48:33;;;;;;;18.40;11.95;;;33.80;93.00;;;;;;5008852;28;20034;-65
2022/08/13 06:51:01;;;;;;;16.75;11.77;;;33.70;93.10;;;;;;4989486;28;20476;-68
2022/08/13 06:53:28;;;;;;;15.07;12.43;;;33.70;93.80;;;;;;5006073;28;20049;-67
2022/08/13 06:55:55;;;;;;;20.08;14.35;;;33.70;93.60;;;;;;5005525;28;20033;-67
2022/08/13 06:58:28;;;;;;;24.33;15.27;;;33.60;93.90;;;;;;5005170;28;20427;-67
2022/08/13 07:00:55;;;;;;;19.63;14.75;;;33.60;94.20;;;;;;5006097;28;20468;-68
2022/08/13 07:03:34;;;;;;;21.10;15.45;;;33.70;94.10;;;;;;5003411;28;20489;-68
2022/08/13 07:06:01;;;;;;;22.27;15.10;;;33.60;94.00;;;;;;5007791;28;20026;-67
2022/08/13 07:08:31;;;;;;;26.02;18.25;;;33.60;93.30;;;;;;5006776;28;20052;-67
2022/08/13 07:13:35;;;;;;;26.23;18.92;;;33.50;93.40;;;;;;5014974;28;20045;-66
2022/08/13 07:16:03;;;;;;;23.60;17.27;;;33.60;94.00;;;;;;5014674;28;20029;-67
2022/08/13 07:18:31;;;;;;;27.30;22.17;;;33.60;93.10;;;;;;5014370;28;20018;-67
2022/08/13 07:20:58;;;;;;;28.25;20.83;;;33.70;93.00;;;;;;5002653;28;20026;-67
2022/08/13 07:26:13;;;;;;;24.90;19.90;;;33.50;93.00;;;;;;5002679;28;20041;-67
2022/08/13 07:28:41;;;;;;;25.02;20.60;;;33.50;93.80;;;;;;4995128;28;20463;-66
2022/08/13 07:31:09;;;;;;;23.25;17.20;;;33.60;93.60;;;;;;4995096;28;20109;-67
2022/08/13 07:33:38;;;;;;;25.23;17.85;;;33.60;93.40;;;;;;4995117;28;20022;-67
2022/08/13 07:36:12;;;;;;;23.60;16.42;;;33.60;93.30;;;;;;4994075;28;20080;-67
2022/08/13 07:38:41;;;;;;;29.60;19.40;;;33.60;93.70;;;;;;4994833;28;20032;-67
2022/08/13 07:41:10;;;;;;;19.27;15.23;;;33.60;93.30;;;;;;4994810;28;20033;-66
2022/08/13 07:43:39;;;;;;;15.43;13.02;;;33.60;92.30;;;;;;4995366;28;20018;-67
2022/08/13 07:46:10;;;;;;;22.00;13.55;;;33.60;92.30;;;;;;5014799;28;20038;-67
2022/08/13 07:48:39;;;;;;;21.63;13.20;;;33.60;92.60;;;;;;5015188;28;20076;-65
2022/08/13 07:51:22;;;;;;;17.75;13.50;;;33.60;92.90;;;;;;4997551;28;20045;-64
2022/08/13 07:53:52;;;;;;;21.88;13.20;;;33.60;93.50;;;;;;4999407;28;20117;-65
2022/08/13 07:56:31;;;;;;;24.20;13.48;;;33.60;93.40;;;;;;5013330;28;20030;-64
2022/08/13 07:59:00;;;;;;;15.15;10.63;;;33.70;93.60;;;;;;5001630;28;20418;-64
2022/08/13 08:01:28;;;;;;;15.05;10.32;;;33.70;93.50;;;;;;5004438;28;20364;-65
2022/08/13 08:03:59;;;;;;;17.55;9.60;;;33.60;92.60;;;;;;4997361;28;20022;-64
2022/08/13 08:06:26;;;;;;;17.20;10.00;;;33.60;91.00;;;;;;5003347;28;20066;-65
2022/08/13 08:08:54;;;;;;;15.93;8.95;;;33.60;91.40;;;;;;5004954;28;20034;-65
2022/08/13 08:14:00;;;;;;;17.92;10.38;;;33.50;90.90;;;;;;5005040;28;20034;-65
2022/08/13 08:16:31;;;;;;;16.85;9.98;;;33.50;91.20;;;;;;5003459;28;20081;-65
2022/08/13 08:18:59;;;;;;;14.23;8.63;;;33.60;91.10;;;;;;5005013;28;20069;-65
2022/08/13 08:21:27;;;;;;;15.98;9.10;;;33.40;90.70;;;;;;5003328;28;20434;-65
2022/08/13 08:23:57;;;;;;;28.48;10.30;;;33.50;90.30;;;;;;5005065;28;20022;-65
2022/08/13 08:26:29;;;;;;;21.10;11.25;;;33.40;90.00;;;;;;5004151;28;20026;-65
2022/08/13 08:28:57;;;;;;;23.00;11.00;;;33.30;90.90;;;;;;4994250;28;20482;-64
2022/08/13 08:31:25;;;;;;;22.85;12.63;;;33.20;91.10;;;;;;5008488;28;20037;-64
2022/08/13 08:34:02;;;;;;;19.95;10.50;;;33.20;91.20;;;;;;5005497;28;20025;-65
2022/08/13 08:36:29;;;;;;;19.55;10.00;;;33.10;91.50;;;;;;5008212;28;20057;-64
2022/08/13 08:44:32;;;;;;;28.40;12.95;;;33.10;93.00;;;;;;5005335;28;20030;-64
2022/08/13 08:47:01;;;;;;;28.35;15.52;;;33.00;93.30;;;;;;5014147;28;20087;-64
2022/08/13 08:49:30;;;;;;;29.77;15.88;;;33.00;93.60;;;;;;5007320;28;20058;-65
2022/08/13 08:51:58;;;;;;;25.45;13.77;;;33.00;93.60;;;;;;5000020;28;20038;-65
2022/08/13 08:54:27;;;;;;;23.55;13.38;;;32.90;93.60;;;;;;4998542;28;20438;-65
2022/08/13 08:56:55;;;;;;;23.58;14.20;;;32.80;93.80;;;;;;4992796;28;20536;-66
2022/08/13 08:59:25;;;;;;;29.60;13.15;;;32.80;94.20;;;;;;4997740;28;20018;-64
2022/08/13 09:01:55;;;;;;;24.73;12.20;;;32.80;94.30;;;;;;5004254;28;20022;-66
2022/08/13 09:04:25;;;;;;;17.02;11.15;;;32.60;94.30;;;;;;5004772;28;20497;-66
2022/08/13 09:06:57;;;;;;;19.02;11.65;;;32.60;94.50;;;;;;5010159;28;20062;-66
2022/08/13 09:09:25;;;;;;;22.92;11.52;;;32.60;95.10;;;;;;5007721;28;20026;-67
2022/08/13 09:11:55;;;;;;;25.88;12.45;;;32.50;95.30;;;;;;5008908;28;20030;-66
2022/08/13 09:14:26;;;;;;;28.52;17.27;;;32.30;95.40;;;;;;4999100;28;20073;-67
2022/08/13 09:16:56;;;;;;;56.17;35.83;;;32.20;96.00;;;;;;5000958;28;20109;-65
2022/08/13 09:19:23;;;;;;;77.53;48.10;;;32.10;95.50;;;;;;4998859;28;20260;-66
2022/08/13 09:21:51;;;;;;;55.65;34.67;;;32.00;96.10;;;;;;5004477;28;20027;-64
2022/08/13 09:24:24;;;;;;;41.70;25.73;;;32.00;96.30;;;;;;5016524;28;20028;-65
2022/08/13 09:26:51;;;;;;;49.00;29.13;;;31.90;96.50;;;;;;5016052;28;20238;-64
2022/08/13 09:29:20;;;;;;;32.83;20.38;;;31.80;97.20;;;;;;5013999;28;20026;-64
2022/08/13 09:31:49;;;;;;;40.60;24.83;;;31.80;97.00;;;;;;5013495;28;20088;-65
2022/08/13 09:34:17;;;;;;;293.52;214.48;;;31.70;97.10;;;;;;4995270;28;20045;-65
2022/08/13 09:36:44;;;;;;;136.85;108.00;;;31.70;97.00;;;;;;4995782;28;20030;-65
2022/08/13 09:39:31;;;;;;;77.00;49.97;;;31.60;97.20;;;;;;5011350;28;20113;-66
2022/08/13 09:42:00;;;;;;;124.63;90.93;;;31.60;97.40;;;;;;5010342;28;20029;-65
2022/08/13 09:44:28;;;;;;;27.27;16.38;;;31.50;97.60;;;;;;5010291;28;20092;-64
2022/08/13 09:46:55;;;;;;;25.55;13.52;;;31.40;97.90;;;;;;5008191;28;20049;-65
2022/08/13 09:49:22;;;;;;;36.08;23.08;;;31.20;98.10;;;;;;5004182;28;20029;-65
2022/08/13 09:51:48;;;;;;;41.13;21.90;;;31.20;98.50;;;;;;5002509;28;20018;-64
2022/08/13 09:54:16;;;;;;;140.00;90.50;;;31.10;98.50;;;;;;5012456;28;20388;-65
2022/08/13 09:56:45;;;;;;;100.90;67.18;;;31.10;98.80;;;;;;5008592;28;20080;-64
2022/08/13 09:59:11;;;;;;;125.57;83.40;;;31.10;98.90;;;;;;5011604;28;20025;-65
2022/08/13 10:01:38;;;;;;;85.18;55.78;;;31.00;98.10;;;;;;5016268;28;20022;-66
2022/08/13 10:04:05;;;;;;;135.23;98.32;;;31.00;98.50;;;;;;5012340;28;20174;-65
2022/08/13 10:06:32;;;;;;;97.80;60.65;;;31.00;98.20;;;;;;5014268;28;20033;-65
2022/08/13 10:09:00;;;;;;;118.30;79.18;;;31.00;97.80;;;;;;5007384;28;20037;-65
2022/08/13 10:11:28;;;;;;;133.93;87.00;;;30.90;98.00;;;;;;5013941;28;20018;-67
2022/08/13 10:13:55;;;;;;;101.30;68.55;;;30.80;98.30;;;;;;5013261;28;20479;-66
2022/08/13 10:16:22;;;;;;;41.47;26.85;;;30.70;98.20;;;;;;5014371;28;20030;-66
2022/08/13 10:18:48;;;;;;;45.80;26.92;;;30.70;98.30;;;;;;4997762;28;20026;-66
2022/08/13 10:21:15;;;;;;;35.92;23.08;;;30.70;98.30;;;;;;5012578;28;20470;-66
2022/08/13 10:23:41;;;;;;;34.30;19.42;;;30.70;98.50;;;;;;5015510;28;20088;-66
2022/08/13 10:26:09;;;;;;;35.70;16.90;;;30.70;98.30;;;;;;5016355;28;20383;-66
2022/08/13 10:28:36;;;;;;;40.15;21.63;;;30.60;98.70;;;;;;5016252;28;20041;-67
2022/08/13 10:31:07;;;;;;;151.98;107.45;;;30.60;98.60;;;;;;5016288;28;20394;-66
2022/08/13 10:33:35;;;;;;;35.90;18.83;;;30.60;98.30;;;;;;5016186;28;20024;-66
2022/08/13 10:36:02;;;;;;;26.27;16.98;;;30.60;97.60;;;;;;5013936;28;20286;-66
2022/08/13 10:38:29;;;;;;;34.08;19.95;;;30.50;97.90;;;;;;5003957;28;20022;-64
2022/08/13 10:41:07;;;;;;;28.90;15.48;;;30.40;98.50;;;;;;4994742;28;20098;-66
2022/08/13 10:43:38;;;;;;;32.10;17.67;;;30.40;98.50;;;;;;5003744;28;20096;-67
2022/08/13 10:46:06;;;;;;;34.10;19.95;;;30.40;98.80;;;;;;4987238;28;20042;-66
2022/08/13 10:48:33;;;;;;;44.03;24.27;;;30.40;98.80;;;;;;5003530;28;20042;-67
2022/08/13 10:50:59;;;;;;;43.95;25.40;;;30.40;99.00;;;;;;5011294;28;20057;-67
2022/08/13 10:56:01;;;;;;;82.95;52.35;;;30.30;98.30;;;;;;5010169;28;20097;-67
2022/08/13 10:58:28;;;;;;;89.25;50.42;;;30.30;98.30;;;;;;5000404;28;20080;-66
2022/08/13 11:00:55;;;;;;;88.10;54.40;;;30.30;98.50;;;;;;5009791;28;20017;-67
2022/08/13 11:03:21;;;;;;;31.95;18.17;;;30.30;98.50;;;;;;5005842;28;20030;-66
2022/08/13 11:05:48;;;;;;;40.75;25.20;;;30.30;99.20;;;;;;5009506;28;20105;-66
2022/08/13 11:08:15;;;;;;;46.25;29.80;;;30.10;99.90;;;;;;5005630;28;20098;-66
2022/08/13 11:10:42;;;;;;;46.15;24.98;;;30.00;99.90;;;;;;5003121;28;20080;-68
2022/08/13 11:13:08;;;;;;;41.83;23.02;;;29.90;99.90;;;;;;5014377;28;20018;-67
2022/08/13 11:15:35;;;;;;;45.22;27.17;;;29.80;99.90;;;;;;5003374;28;20034;-68
2022/08/13 11:18:02;;;;;;;45.10;26.50;;;29.90;99.90;;;;;;5009910;28;20026;-66
2022/08/13 11:20:30;;;;;;;44.80;28.17;;;29.90;99.90;;;;;;5007520;28;20026;-67
2022/08/13 11:22:57;;;;;;;42.03;24.75;;;29.90;99.90;;;;;;5005303;28;20034;-64
2022/08/13 11:25:24;;;;;;;41.67;21.05;;;29.80;99.90;;;;;;5006752;28;20181;-63
2022/08/13 11:27:51;;;;;;;35.38;19.52;;;29.70;99.90;;;;;;5006078;28;20037;-62
2022/08/13 11:30:18;;;;;;;36.20;19.75;;;29.70;99.90;;;;;;5005886;28;20026;-61
2022/08/13 11:32:45;;;;;;;35.55;18.75;;;29.70;99.90;;;;;;5007027;28;20472;-63
2022/08/13 11:35:11;;;;;;;33.50;20.65;;;29.70;99.90;;;;;;5007048;28;20100;-65
2022/08/13 11:37:38;;;;;;;28.55;14.43;;;29.70;99.90;;;;;;5006299;28;20067;-66
2022/08/13 11:40:05;;;;;;;26.40;13.65;;;29.60;99.90;;;;;;5008722;28;20478;-65
2022/08/13 11:42:32;;;;;;;26.52;14.48;;;29.50;99.90;;;;;;5006388;28;20022;-65
2022/08/13 11:44:58;;;;;;;31.80;14.38;;;29.40;99.90;;;;;;5007775;28;20018;-62
2022/08/13 11:47:25;;;;;;;21.60;12.50;;;29.30;99.90;;;;;;5007628;28;20257;-63
2022/08/13 11:49:52;;;;;;;25.52;15.05;;;29.20;99.90;;;;;;5006855;28;20033;-62
2022/08/13 11:52:18;;;;;;;42.60;20.58;;;29.20;99.90;;;;;;4990777;28;20369;-63
2022/08/13 11:54:45;;;;;;;33.30;17.27;;;29.20;99.90;;;;;;5007030;28;20523;-63
2022/08/13 11:57:11;;;;;;;45.25;18.13;;;29.20;99.90;;;;;;5010604;28;20036;-64
2022/08/13 11:59:38;;;;;;;29.83;17.20;;;29.20;99.90;;;;;;5007255;28;20112;-64
2022/08/13 12:02:06;;;;;;;38.45;16.50;;;29.30;99.90;;;;;;5008849;28;20022;-66
2022/08/13 12:04:36;;;;;;;32.47;17.65;;;29.20;99.90;;;;;;5005581;28;20018;-66
2022/08/13 12:07:03;;;;;;;34.95;14.43;;;29.20;99.90;;;;;;5008429;28;20084;-65
2022/08/13 12:09:29;;;;;;;21.58;10.93;;;29.20;99.90;;;;;;5005961;28;20102;-65
2022/08/13 12:11:56;;;;;;;28.83;11.60;;;29.00;99.90;;;;;;5008439;28;20033;-66
2022/08/13 12:14:22;;;;;;;23.80;12.23;;;28.90;99.90;;;;;;5005334;28;20026;-65
2022/08/13 12:16:49;;;;;;;30.48;11.02;;;28.90;99.90;;;;;;5008428;28;20224;-66
2022/08/13 12:19:16;;;;;;;22.73;11.48;;;28.90;99.90;;;;;;5003502;28;20396;-67
2022/08/13 12:21:42;;;;;;;23.52;12.73;;;28.80;99.90;;;;;;4992510;28;20026;-66
2022/08/13 12:24:09;;;;;;;35.78;13.95;;;28.80;99.90;;;;;;5001806;28;20018;-66
2022/08/13 12:26:35;;;;;;;27.80;14.75;;;28.80;99.90;;;;;;5006087;28;20364;-66
2022/08/13 12:29:02;;;;;;;37.42;15.65;;;28.80;99.90;;;;;;5002750;28;20029;-66
2022/08/13 12:31:28;;;;;;;35.15;15.43;;;28.90;99.90;;;;;;5010988;28;20101;-65
2022/08/13 12:33:55;;;;;;;28.85;13.25;;;28.80;99.90;;;;;;5003745;28;20057;-66
2022/08/13 12:36:22;;;;;;;29.20;15.20;;;28.80;99.90;;;;;;5009374;28;20387;-66
2022/08/13 12:38:49;;;;;;;23.38;11.05;;;28.90;99.90;;;;;;5004468;28;20018;-66
2022/08/13 12:41:15;;;;;;;23.40;12.15;;;28.80;99.90;;;;;;5002177;28;20101;-67
2022/08/13 12:43:42;;;;;;;27.65;13.85;;;28.80;99.90;;;;;;4989218;28;20033;-67
2022/08/13 12:46:11;;;;;;;29.33;12.85;;;28.90;99.90;;;;;;4990353;28;20053;-68
2022/08/13 12:48:37;;;;;;;25.58;13.07;;;28.90;99.90;;;;;;5003909;28;20022;-68
2022/08/13 12:51:04;;;;;;;28.50;15.52;;;28.90;99.90;;;;;;5009653;28;20014;-68
2022/08/13 12:53:31;;;;;;;32.10;17.92;;;29.00;99.90;;;;;;5005195;28;20424;-66
2022/08/13 12:55:57;;;;;;;31.95;17.20;;;29.00;99.90;;;;;;5010254;28;20152;-67
2022/08/13 12:58:26;;;;;;;28.08;17.85;;;29.10;99.90;;;;;;5003916;28;20060;-67
2022/08/13 13:00:54;;;;;;;30.13;16.42;;;29.10;99.90;;;;;;5009866;28;20026;-67
2022/08/13 13:03:23;;;;;;;34.83;17.38;;;29.10;99.90;;;;;;4980740;28;20112;-67